TimeEST,TemperatureF,Dew PointF,Humidity,Sea Level PressureIn,VisibilityMPH,Wind Direction,Wind SpeedMPH,Gust SpeedMPH,PrecipitationIn,Events,Conditions,WindDirDegrees,DateUTC
12:15 AM,19.4,8.6,63,30.19,10.0,NW,11.5,20.7,N/A,,Scattered Clouds,320,2013-01-24 05:15:00
12:35 AM,17.6,12.2,79,30.20,10.0,NW,10.4,18.4,N/A,,Clear,310,2013-01-24 05:35:00
12:55 AM,17.6,12.2,79,30.21,10.0,NW,9.2,-,N/A,,Scattered Clouds,320,2013-01-24 05:55:00
1:15 AM,17.6,12.2,79,30.22,10.0,NW,10.4,-,N/A,,Scattered Clouds,310,2013-01-24 06:15:00
1:35 AM,17.6,14.0,86,30.24,4.0,NW,10.4,-,N/A,Snow,Light Snow,320,2013-01-24 06:35:00
1:55 AM,17.6,14.0,86,30.26,0.8,NW,10.4,16.1,N/A,Snow,Snow,320,2013-01-24 06:55:00
2:15 AM,17.6,14.0,86,30.28,10.0,NW,9.2,-,N/A,,Mostly Cloudy,320,2013-01-24 07:15:00
2:55 AM,17.6,14.0,86,30.32,4.0,NNW,6.9,-,N/A,Snow,Light Snow,330,2013-01-24 07:55:00
3:15 AM,15.8,12.2,86,30.33,10.0,NNW,8.1,-,N/A,,Mostly Cloudy,340,2013-01-24 08:15:00
3:35 AM,15.8,12.2,86,30.35,10.0,NNW,5.8,-,N/A,,Scattered Clouds,330,2013-01-24 08:35:00
3:55 AM,17.6,12.2,79,30.36,10.0,North,12.7,-,N/A,Snow,Light Snow,350,2013-01-24 08:55:00
4:15 AM,14.0,8.6,79,30.37,10.0,North,6.9,-,N/A,,Scattered Clouds,350,2013-01-24 09:15:00
4:35 AM,12.2,6.8,79,30.38,10.0,NW,4.6,-,N/A,,Clear,320,2013-01-24 09:35:00
4:55 AM,12.2,6.8,79,30.39,10.0,NW,3.5,-,N/A,,Mostly Cloudy,310,2013-01-24 09:55:00
5:15 AM,12.2,8.6,85,30.40,10.0,NW,3.5,-,N/A,,Overcast,310,2013-01-24 10:15:00
5:35 AM,14.0,10.4,86,30.41,10.0,WNW,3.5,-,N/A,,Overcast,300,2013-01-24 10:35:00
5:55 AM,14.0,10.4,86,30.43,10.0,WNW,4.6,-,N/A,,Mostly Cloudy,290,2013-01-24 10:55:00
6:15 AM,12.2,8.6,85,30.43,10.0,West,5.8,-,N/A,,Scattered Clouds,280,2013-01-24 11:15:00
6:35 AM,10.4,8.6,92,30.45,10.0,WNW,5.8,-,N/A,,Scattered Clouds,300,2013-01-24 11:35:00
6:55 AM,12.2,8.6,85,30.47,10.0,WNW,4.6,-,N/A,,Clear,300,2013-01-24 11:55:00
7:15 AM,12.2,8.6,85,30.48,10.0,WNW,5.8,-,N/A,,Scattered Clouds,300,2013-01-24 12:15:00
7:35 AM,12.2,8.6,85,30.49,10.0,WNW,5.8,-,N/A,,Mostly Cloudy,300,2013-01-24 12:35:00
7:55 AM,12.2,8.6,85,30.49,10.0,WNW,6.9,-,N/A,,Mostly Cloudy,300,2013-01-24 12:55:00
8:15 AM,12.2,8.6,85,30.50,10.0,NNW,3.5,-,N/A,,Mostly Cloudy,330,2013-01-24 13:15:00
8:55 AM,12.2,8.6,85,30.52,10.0,NNW,4.6,-,N/A,,Clear,330,2013-01-24 13:55:00
9:15 AM,12.2,8.6,85,30.53,10.0,NNW,3.5,-,N/A,,Clear,330,2013-01-24 14:15:00
9:35 AM,14.0,10.4,86,30.55,10.0,NNW,3.5,-,N/A,,Clear,340,2013-01-24 14:35:00
9:55 AM,14.0,10.4,86,30.56,10.0,North,5.8,-,N/A,,Clear,360,2013-01-24 14:55:00
10:15 AM,15.8,10.4,79,30.58,10.0,North,5.8,-,N/A,,Clear,360,2013-01-24 15:15:00
10:35 AM,17.6,12.2,79,30.59,10.0,North,6.9,-,N/A,,Clear,360,2013-01-24 15:35:00
10:55 AM,17.6,10.4,73,30.60,10.0,NNE,5.8,-,N/A,,Scattered Clouds,30,2013-01-24 15:55:00
11:15 AM,17.6,8.6,68,30.60,10.0,NE,5.8,-,N/A,,Scattered Clouds,40,2013-01-24 16:15:00
11:35 AM,19.4,6.8,58,30.60,10.0,ENE,5.8,-,N/A,,Clear,60,2013-01-24 16:35:00
11:55 AM,21.2,8.6,58,30.60,10.0,East,8.1,-,N/A,,Clear,90,2013-01-24 16:55:00
12:15 PM,19.4,5.0,54,30.60,10.0,East,9.2,-,N/A,,Clear,80,2013-01-24 17:15:00
12:35 PM,21.2,6.8,54,30.59,10.0,East,5.8,-,N/A,,Clear,80,2013-01-24 17:35:00
12:55 PM,21.2,5.0,50,30.58,10.0,East,4.6,-,N/A,,Clear,90,2013-01-24 17:55:00
1:15 PM,21.2,3.2,46,30.57,10.0,East,10.4,-,N/A,,Clear,90,2013-01-24 18:15:00
1:35 PM,21.2,3.2,46,30.56,10.0,ESE,3.5,-,N/A,,Clear,110,2013-01-24 18:35:00
1:55 PM,21.2,1.4,42,30.56,10.0,ESE,9.2,-,N/A,,Clear,110,2013-01-24 18:55:00
2:15 PM,21.2,1.4,42,30.55,10.0,ESE,5.8,-,N/A,,Clear,120,2013-01-24 19:15:00
2:35 PM,21.2,3.2,46,30.55,10.0,East,5.8,-,N/A,,Clear,80,2013-01-24 19:35:00
2:55 PM,23.0,3.2,43,30.54,10.0,East,4.6,-,N/A,,Clear,90,2013-01-24 19:55:00
3:15 PM,21.2,1.4,42,30.54,10.0,East,8.1,-,N/A,,Clear,90,2013-01-24 20:15:00
3:35 PM,23.0,1.4,39,30.54,10.0,SE,5.8,-,N/A,,Clear,130,2013-01-24 20:35:00
3:55 PM,23.0,1.4,39,30.53,10.0,East,5.8,-,N/A,,Clear,80,2013-01-24 20:55:00
4:15 PM,21.2,3.2,46,30.53,10.0,ESE,5.8,-,N/A,,Clear,110,2013-01-24 21:15:00
4:35 PM,21.2,3.2,46,30.53,10.0,East,6.9,-,N/A,,Clear,100,2013-01-24 21:35:00
4:55 PM,21.2,3.2,46,30.52,10.0,ESE,6.9,-,N/A,,Clear,120,2013-01-24 21:55:00
5:15 PM,21.2,3.2,46,30.53,10.0,ESE,6.9,-,N/A,,Clear,110,2013-01-24 22:15:00
5:55 PM,19.4,5.0,54,30.52,10.0,ESE,6.9,-,N/A,,Clear,110,2013-01-24 22:55:00
6:15 PM,21.2,5.0,50,30.51,10.0,ESE,9.2,-,N/A,,Clear,120,2013-01-24 23:15:00
6:35 PM,21.2,5.0,50,30.51,10.0,ESE,8.1,-,N/A,,Clear,120,2013-01-24 23:35:00
6:55 PM,21.2,5.0,50,30.52,10.0,ESE,9.2,-,N/A,,Clear,120,2013-01-24 23:55:00
7:15 PM,21.2,5.0,50,30.50,10.0,ESE,10.4,-,N/A,,Clear,110,2013-01-25 00:15:00
7:35 PM,19.4,5.0,54,30.51,10.0,ESE,8.1,-,N/A,,Clear,110,2013-01-25 00:35:00
7:55 PM,21.2,5.0,50,30.49,10.0,East,10.4,-,N/A,,Clear,100,2013-01-25 00:55:00
8:15 PM,19.4,5.0,54,30.49,10.0,East,10.4,-,N/A,,Mostly Cloudy,100,2013-01-25 01:15:00
8:35 PM,19.4,5.0,54,30.48,10.0,East,11.5,-,N/A,,Scattered Clouds,100,2013-01-25 01:35:00
8:55 PM,19.4,5.0,54,30.47,10.0,East,11.5,-,N/A,,Scattered Clouds,100,2013-01-25 01:55:00
9:15 PM,19.4,6.8,58,30.46,10.0,East,9.2,-,N/A,,Scattered Clouds,100,2013-01-25 02:15:00
9:35 PM,19.4,8.6,63,30.46,10.0,ESE,10.4,-,N/A,,Clear,110,2013-01-25 02:35:00
9:55 PM,19.4,8.6,63,30.45,10.0,ESE,10.4,-,N/A,,Clear,120,2013-01-25 02:55:00
10:15 PM,19.4,8.6,63,30.45,10.0,ESE,11.5,-,N/A,,Clear,120,2013-01-25 03:15:00
10:35 PM,19.4,8.6,63,30.44,10.0,ESE,12.7,-,N/A,,Clear,110,2013-01-25 03:35:00
10:55 PM,19.4,8.6,63,30.43,10.0,ESE,12.7,-,N/A,,Clear,110,2013-01-25 03:55:00
11:15 PM,19.4,8.6,63,30.43,10.0,ESE,12.7,-,N/A,,Clear,110,2013-01-25 04:15:00
11:35 PM,19.4,8.6,63,30.43,10.0,ESE,10.4,-,N/A,,Clear,110,2013-01-25 04:35:00
11:55 PM,19.4,10.4,68,30.40,10.0,ESE,13.8,-,N/A,,Clear,110,2013-01-25 04:55:00